createdAt,value
2022-11-07T06:15:52.895Z,10.51
2022-11-07T06:25:52.815Z,10.59
2022-11-07T06:35:52.818Z,10.61
2022-11-07T06:45:52.887Z,10.50
2022-11-07T06:55:53.112Z,10.49
2022-11-07T07:05:52.885Z,10.50
2022-11-07T07:15:52.924Z,10.42
2022-11-07T07:25:52.894Z,10.40
2022-11-07T07:35:52.778Z,10.68
2022-11-07T07:45:52.847Z,11.17
2022-11-07T07:55:52.910Z,11.12
2022-11-07T08:05:52.963Z,11.27
2022-11-07T08:15:52.839Z,11.74
2022-11-07T08:25:52.790Z,11.70
2022-11-07T08:35:52.993Z,11.47
2022-11-07T08:45:53.100Z,11.46
2022-11-07T08:55:53.205Z,11.55
2022-11-07T09:05:53.271Z,11.62
2022-11-07T09:15:53.163Z,11.74
2022-11-07T09:25:53.112Z,11.69
2022-11-07T09:35:53.040Z,11.75
2022-11-07T09:45:53.173Z,12.01
2022-11-07T09:55:53.142Z,12.09
2022-11-07T10:05:53.143Z,12.33
2022-11-07T10:15:53.187Z,12.76
2022-11-07T10:25:53.135Z,12.96
2022-11-07T10:35:53.201Z,13.15
2022-11-07T10:45:53.381Z,13.15
2022-11-07T10:55:53.331Z,13.06
2022-11-07T11:05:53.392Z,13.17
2022-11-07T11:15:53.222Z,13.24
2022-11-07T11:25:53.392Z,13.35
2022-11-07T11:35:53.210Z,13.34
2022-11-07T11:45:53.323Z,13.50
2022-11-07T11:55:53.323Z,13.69
2022-11-07T12:05:53.432Z,14.05
2022-11-07T12:15:53.473Z,14.27
2022-11-07T12:25:53.415Z,14.42
2022-11-07T12:35:53.251Z,14.23
2022-11-07T12:45:53.312Z,14.24
2022-11-07T12:55:53.293Z,14.13
2022-11-07T13:05:53.471Z,14.14
2022-11-07T13:16:14.682Z,14.07
2022-11-07T13:25:53.411Z,14.21
2022-11-07T13:35:53.321Z,14.21
2022-11-07T13:45:53.245Z,14.15
2022-11-07T13:55:53.437Z,13.94
2022-11-07T14:05:53.390Z,13.74
2022-11-07T14:15:53.371Z,13.47
2022-11-07T14:25:53.347Z,13.10
2022-11-07T14:35:53.268Z,12.86
2022-11-07T14:46:11.307Z,12.70
2022-11-07T14:55:53.484Z,12.40
2022-11-07T15:05:53.388Z,12.14
2022-11-07T15:15:53.435Z,12.04
2022-11-07T15:25:53.435Z,12.16
2022-11-07T15:35:53.459Z,12.12
2022-11-07T15:45:53.443Z,12.02
2022-11-07T15:55:53.466Z,12.02
2022-11-07T16:05:53.649Z,12.01
2022-11-07T16:15:53.457Z,11.99
2022-11-07T16:25:53.391Z,12.08
2022-11-07T16:35:53.524Z,12.09
2022-11-07T16:45:53.448Z,12.20
2022-11-07T16:55:54.106Z,12.23
2022-11-07T17:05:53.441Z,12.31
2022-11-07T17:15:53.487Z,12.41
2022-11-07T17:25:53.536Z,12.31
2022-11-07T17:35:53.556Z,12.12
2022-11-07T17:45:53.577Z,12.13
2022-11-07T17:55:53.739Z,12.19
2022-11-07T18:05:53.600Z,12.23
2022-11-07T18:15:53.498Z,12.18
2022-11-07T18:25:53.644Z,12.09
2022-11-07T18:35:53.532Z,11.96
2022-11-07T18:45:53.771Z,12.00
2022-11-07T18:55:53.813Z,11.85
2022-11-07T19:05:53.850Z,11.86
2022-11-07T19:15:54.057Z,11.92
